createdAt,value
2023-02-06T00:00:53.324Z,2.55
2023-02-06T00:03:20.641Z,2.45
2023-02-06T00:05:58.758Z,2.65
2023-02-06T00:08:27.026Z,3.10
2023-02-06T00:10:54.228Z,3.17
2023-02-06T00:13:21.429Z,1.90
2023-02-06T00:15:48.517Z,2.70
2023-02-06T00:18:15.490Z,2.45
2023-02-06T00:20:42.538Z,2.03
2023-02-06T00:23:10.105Z,2.90
2023-02-06T00:25:37.350Z,2.90
2023-02-06T00:28:04.895Z,2.10
2023-02-06T00:30:32.034Z,2.60
2023-02-06T00:32:59.047Z,2.53
2023-02-06T00:35:26.230Z,2.50
2023-02-06T00:37:53.299Z,2.90
2023-02-06T00:40:20.367Z,3.15
2023-02-06T00:42:47.364Z,2.47
2023-02-06T00:45:14.406Z,2.17
2023-02-06T00:47:41.313Z,2.65
2023-02-06T00:50:12.015Z,2.08
2023-02-06T00:52:39.064Z,3.08
2023-02-06T00:55:06.542Z,2.72
2023-02-06T00:57:33.371Z,3.58
2023-02-06T01:00:06.282Z,2.25
2023-02-06T01:02:33.370Z,2.28
2023-02-06T01:05:00.404Z,2.33
2023-02-06T01:07:27.355Z,2.85
2023-02-06T01:09:54.278Z,2.47
2023-02-06T01:12:21.414Z,2.25
2023-02-06T01:14:48.366Z,3.97
2023-02-06T01:17:15.298Z,2.22
2023-02-06T01:19:42.268Z,2.60
2023-02-06T01:22:09.994Z,2.03
2023-02-06T01:24:36.897Z,2.35
2023-02-06T01:27:03.939Z,2.42
2023-02-06T01:29:30.844Z,1.95
2023-02-06T01:31:57.789Z,2.22
2023-02-06T01:34:24.989Z,1.92
2023-02-06T01:36:52.236Z,1.83
2023-02-06T01:39:21.576Z,1.58
2023-02-06T01:41:48.670Z,2.00
2023-02-06T01:44:22.766Z,1.70
2023-02-06T01:46:54.972Z,2.50
2023-02-06T01:49:35.663Z,1.73
2023-02-06T01:52:18.849Z,1.80
2023-02-06T01:54:49.581Z,2.08
2023-02-06T01:57:17.658Z,2.08
2023-02-06T01:59:48.028Z,2.05
2023-02-06T02:02:15.445Z,1.85
2023-02-06T02:04:42.925Z,1.20
2023-02-06T02:07:18.039Z,1.90
2023-02-06T02:09:44.974Z,2.30
2023-02-06T02:12:12.333Z,1.83
2023-02-06T02:14:40.225Z,1.70
2023-02-06T02:17:44.686Z,2.45
2023-02-06T02:20:32.634Z,3.78
2023-02-06T02:23:31.324Z,1.48
2023-02-06T02:26:22.126Z,1.85
2023-02-06T02:29:19.396Z,2.63
2023-02-06T02:32:18.816Z,2.20
2023-02-06T02:34:54.638Z,1.77
2023-02-06T02:37:36.969Z,2.15
2023-02-06T02:40:18.554Z,2.47
2023-02-06T02:42:56.447Z,1.83
2023-02-06T02:45:33.334Z,2.45
2023-02-06T02:48:06.344Z,2.10
2023-02-06T02:50:35.019Z,1.55
2023-02-06T02:53:03.719Z,1.92
2023-02-06T02:55:31.006Z,1.25
2023-02-06T02:58:07.997Z,2.22
2023-02-06T03:00:40.294Z,2.75
2023-02-06T03:03:11.124Z,1.98
2023-02-06T03:05:44.134Z,2.13
2023-02-06T03:08:17.173Z,2.92
2023-02-06T03:11:04.154Z,2.17
2023-02-06T03:14:01.570Z,1.98
2023-02-06T03:16:35.760Z,1.88
2023-02-06T03:19:15.276Z,1.92
2023-02-06T03:21:43.130Z,1.90
2023-02-06T03:24:27.658Z,2.13
2023-02-06T03:27:03.009Z,2.30
2023-02-06T03:29:32.190Z,1.70
2023-02-06T03:32:24.640Z,2.80
2023-02-06T03:34:58.233Z,2.90
2023-02-06T03:37:25.738Z,2.63
2023-02-06T03:39:52.687Z,1.98
2023-02-06T03:42:20.414Z,2.20
2023-02-06T03:44:51.697Z,1.67
2023-02-06T03:47:19.432Z,1.52
2023-02-06T03:49:47.491Z,3.70
2023-02-06T03:52:18.168Z,2.83
2023-02-06T03:54:51.928Z,2.20
2023-02-06T04:28:56.490Z,2.08
2023-02-06T04:31:44.101Z,2.05
2023-02-06T04:34:11.057Z,1.95
2023-02-06T04:36:40.525Z,1.90
2023-02-06T04:39:07.383Z,2.20
2023-02-06T04:41:34.160Z,2.67
2023-02-06T04:44:01.273Z,2.13
2023-02-06T04:46:28.080Z,2.78
2023-02-06T04:48:54.804Z,2.05
2023-02-06T04:51:21.585Z,1.80
2023-02-06T04:53:48.318Z,2.00
2023-02-06T04:56:15.144Z,2.25
2023-02-06T04:58:41.950Z,2.75
2023-02-06T05:01:08.760Z,2.05
2023-02-06T05:03:35.574Z,2.25
2023-02-06T05:06:03.749Z,1.73
2023-02-06T05:08:30.575Z,2.13
2023-02-06T05:10:57.423Z,1.95
2023-02-06T05:13:24.238Z,1.77
2023-02-06T05:15:51.087Z,2.50
2023-02-06T05:18:18.308Z,2.47
2023-02-06T05:20:45.132Z,3.22
2023-02-06T05:23:12.265Z,3.03
2023-02-06T05:25:40.352Z,3.10
2023-02-06T05:28:08.854Z,3.75
2023-02-06T05:30:36.428Z,2.47
2023-02-06T05:33:03.169Z,2.95
2023-02-06T05:35:30.388Z,3.63
2023-02-06T05:38:05.948Z,4.38
2023-02-06T05:40:32.906Z,3.70
2023-02-06T05:42:59.603Z,4.25
2023-02-06T05:45:26.339Z,5.25
2023-02-06T05:47:54.488Z,4.30
2023-02-06T05:50:21.449Z,4.25
2023-02-06T05:52:48.201Z,5.13
2023-02-06T05:55:17.031Z,3.08
2023-02-06T05:57:44.309Z,4.00
2023-02-06T06:00:12.093Z,3.92
2023-02-06T06:02:39.004Z,2.63
2023-02-06T06:05:06.129Z,3.30
2023-02-06T06:07:32.927Z,3.08
2023-02-06T06:10:00.231Z,4.80
2023-02-06T06:12:27.270Z,3.15
2023-02-06T06:14:54.030Z,3.45
2023-02-06T06:17:21.318Z,3.40
2023-02-06T06:19:48.083Z,3.72
2023-02-06T06:22:14.925Z,3.42
2023-02-06T06:24:41.729Z,3.45
2023-02-06T06:27:10.750Z,2.38
2023-02-06T06:29:37.840Z,3.25
2023-02-06T06:32:05.289Z,2.78
2023-02-06T06:34:32.198Z,2.75
2023-02-06T06:36:59.088Z,2.65
2023-02-06T06:39:25.809Z,2.97
2023-02-06T06:41:52.541Z,3.33
2023-02-06T06:44:19.245Z,2.83
2023-02-06T06:46:46.147Z,2.92
2023-02-06T06:49:12.886Z,2.17
2023-02-06T06:51:39.670Z,2.55
2023-02-06T06:54:06.572Z,2.38
2023-02-06T06:56:33.276Z,2.35
2023-02-06T06:59:00.021Z,2.08
2023-02-06T07:01:27.006Z,1.55
2023-02-06T07:03:53.730Z,2.50
2023-02-06T07:06:20.488Z,2.00
2023-02-06T07:08:47.294Z,2.10
2023-02-06T07:11:15.233Z,1.58
2023-02-06T07:13:42.720Z,2.40
2023-02-06T07:16:10.035Z,2.35
2023-02-06T07:18:38.559Z,2.17
2023-02-06T07:21:06.512Z,1.73
2023-02-06T07:23:33.217Z,1.55
2023-02-06T07:26:02.346Z,1.95
2023-02-06T07:28:30.503Z,2.35
2023-02-06T07:31:02.027Z,2.15
2023-02-06T07:33:28.971Z,2.10
2023-02-06T07:35:55.930Z,2.63
2023-02-06T07:38:22.736Z,2.38
2023-02-06T07:40:49.489Z,2.20
2023-02-06T07:43:16.567Z,2.38
2023-02-06T07:45:43.760Z,2.13
2023-02-06T07:48:10.610Z,2.22
2023-02-06T07:50:37.610Z,3.00
2023-02-06T07:53:04.355Z,2.78
2023-02-06T07:55:31.146Z,2.50
2023-02-06T07:57:57.995Z,2.80
2023-02-06T08:00:24.746Z,3.22
2023-02-06T08:02:51.548Z,2.63
2023-02-06T08:05:18.525Z,2.53
2023-02-06T08:07:45.323Z,3.33
2023-02-06T08:10:12.170Z,3.22
2023-02-06T08:12:38.902Z,2.72
2023-02-06T08:15:05.964Z,2.60
2023-02-06T08:17:32.688Z,2.58
2023-02-06T08:19:59.485Z,2.42
2023-02-06T08:22:28.888Z,2.40
2023-02-06T08:24:55.602Z,2.65
2023-02-06T08:27:22.318Z,2.75
2023-02-06T08:29:49.198Z,2.28
2023-02-06T08:32:15.918Z,2.78
2023-02-06T08:34:42.732Z,2.88
2023-02-06T08:37:09.678Z,2.33
2023-02-06T08:39:38.132Z,2.50
2023-02-06T08:42:05.411Z,2.30
2023-02-06T08:44:34.832Z,2.25
2023-02-06T08:47:10.189Z,2.90
2023-02-06T08:49:38.283Z,2.05
2023-02-06T08:52:05.895Z,2.40
2023-02-06T08:54:35.208Z,2.40
2023-02-06T08:57:03.268Z,2.65
2023-02-06T08:59:31.077Z,2.30
2023-02-06T09:01:58.006Z,2.25
2023-02-06T09:04:24.883Z,2.40
2023-02-06T09:06:52.248Z,2.58
2023-02-06T09:09:20.458Z,2.20
2023-02-06T09:11:47.612Z,2.42
2023-02-06T09:14:16.010Z,2.42
2023-02-06T09:16:42.960Z,2.50
2023-02-06T09:19:10.720Z,3.00
2023-02-06T09:21:37.820Z,2.72
2023-02-06T09:24:08.255Z,2.22
2023-02-06T09:26:44.788Z,2.55
2023-02-06T09:29:20.556Z,2.70
2023-02-06T09:31:47.881Z,2.22
2023-02-06T09:34:14.792Z,2.17
2023-02-06T09:36:41.744Z,3.05
2023-02-06T09:39:09.636Z,2.83
2023-02-06T09:41:43.791Z,1.52
2023-02-06T09:44:10.585Z,2.25
2023-02-06T09:46:43.299Z,2.05
2023-02-06T09:49:18.803Z,1.23
2023-02-06T09:52:19.984Z,1.88
2023-02-06T09:55:14.537Z,1.95
2023-02-06T09:57:46.724Z,2.58
2023-02-06T10:00:38.129Z,2.25
2023-02-06T10:03:19.758Z,1.73
2023-02-06T10:05:59.903Z,2.67
2023-02-06T10:08:36.458Z,2.08
2023-02-06T10:11:29.364Z,1.60
2023-02-06T10:13:59.691Z,2.22
2023-02-06T10:16:33.125Z,2.20
2023-02-06T10:19:04.682Z,2.40
2023-02-06T10:21:41.892Z,2.13
2023-02-06T10:24:27.325Z,1.50
2023-02-06T10:26:55.604Z,2.25
2023-02-06T10:29:33.073Z,2.17
2023-02-06T10:32:02.779Z,2.03
2023-02-06T10:35:02.091Z,2.55
2023-02-06T10:37:49.090Z,1.90
2023-02-06T10:40:43.820Z,2.00
2023-02-06T10:43:40.432Z,2.42
2023-02-06T10:46:37.307Z,2.30
2023-02-06T10:49:27.892Z,2.55
2023-02-06T10:51:58.465Z,1.90
2023-02-06T10:54:31.345Z,1.58
2023-02-06T10:56:59.143Z,2.45
2023-02-06T10:59:34.804Z,2.50
2023-02-06T11:02:12.063Z,2.28
2023-02-06T11:04:42.572Z,2.70
2023-02-06T11:07:16.259Z,2.17
2023-02-06T11:09:43.790Z,2.03
2023-02-06T11:12:30.938Z,2.30
2023-02-06T11:15:01.929Z,2.95
2023-02-06T11:17:28.738Z,2.75
2023-02-06T11:20:02.594Z,2.30
2023-02-06T11:22:34.757Z,1.95
2023-02-06T11:25:10.041Z,2.10
2023-02-06T11:27:37.037Z,2.83
2023-02-06T11:30:09.175Z,2.58
2023-02-06T11:32:41.220Z,2.90
2023-02-06T11:35:22.386Z,2.63
2023-02-06T11:37:54.198Z,1.42
2023-02-06T11:40:20.858Z,2.00
2023-02-06T11:42:49.891Z,2.00
2023-02-06T11:45:22.749Z,1.85
2023-02-06T11:47:49.823Z,2.55
2023-02-06T11:50:26.734Z,2.33
2023-02-06T11:53:09.273Z,1.90
2023-02-06T11:55:37.918Z,2.20
2023-02-06T11:58:13.838Z,3.00
2023-02-06T12:03:33.343Z,2.25
2023-02-06T12:06:05.684Z,2.03
2023-02-06T12:08:41.154Z,2.65
2023-02-06T12:11:14.491Z,3.03
2023-02-06T12:13:45.550Z,3.40
2023-02-06T12:16:15.133Z,2.55
2023-02-06T12:18:44.460Z,3.03
2023-02-06T12:21:17.238Z,2.03
2023-02-06T12:23:49.746Z,2.83
2023-02-06T12:26:19.599Z,2.75
2023-02-06T12:28:59.581Z,3.40
2023-02-06T12:31:38.181Z,2.30
2023-02-06T12:34:15.177Z,2.70
2023-02-06T12:37:00.430Z,2.55
2023-02-06T12:39:32.755Z,2.45
2023-02-06T12:42:18.574Z,2.10
2023-02-06T12:45:04.268Z,2.45
2023-02-06T12:47:33.886Z,2.53
2023-02-06T12:50:06.791Z,2.05
2023-02-06T12:53:11.514Z,1.85
2023-02-06T12:55:48.019Z,2.55
2023-02-06T12:58:26.402Z,3.47
2023-02-06T13:01:03.629Z,2.72
2023-02-06T13:03:34.481Z,2.42
2023-02-06T13:06:18.695Z,2.33
2023-02-06T13:08:59.663Z,2.15
2023-02-06T13:11:35.717Z,2.25
2023-02-06T13:14:17.514Z,1.90
2023-02-06T13:16:53.016Z,1.80
2023-02-06T13:19:49.153Z,2.00
2023-02-06T13:22:39.817Z,1.13
2023-02-06T13:25:28.618Z,1.65
2023-02-06T13:28:27.542Z,1.38
2023-02-06T13:31:22.488Z,1.70
2023-02-06T13:33:56.539Z,1.60
2023-02-06T13:36:50.344Z,1.85
2023-02-06T13:39:32.518Z,1.55
2023-02-06T13:42:03.863Z,2.33
2023-02-06T13:44:36.826Z,2.50
2023-02-06T13:47:23.791Z,2.75
2023-02-06T13:50:08.922Z,3.08
2023-02-06T13:52:54.410Z,3.38
2023-02-06T13:55:43.086Z,2.05
2023-02-06T13:58:19.334Z,2.13
2023-02-06T14:00:47.986Z,1.67
2023-02-06T14:03:26.328Z,1.98
2023-02-06T14:06:01.926Z,1.83
2023-02-06T14:08:40.626Z,2.20
2023-02-06T14:11:07.495Z,1.85
2023-02-06T14:14:02.259Z,2.13
2023-02-06T14:16:50.278Z,2.03
2023-02-06T14:19:24.931Z,2.35
2023-02-06T14:22:10.179Z,2.35
2023-02-06T14:24:49.010Z,2.10
2023-02-06T14:27:45.259Z,2.05
2023-02-06T14:30:14.898Z,2.05
2023-02-06T14:32:56.503Z,2.45
2023-02-06T14:35:43.166Z,2.53
2023-02-06T14:38:29.870Z,2.60
2023-02-06T14:40:57.648Z,1.88
2023-02-06T14:43:28.398Z,2.72
2023-02-06T14:46:07.141Z,2.25
2023-02-06T14:48:45.574Z,2.58
2023-02-06T14:51:37.235Z,2.05
2023-02-06T14:54:06.587Z,2.00
2023-02-06T14:56:36.714Z,2.60
2023-02-06T14:59:23.805Z,2.40
2023-02-06T15:01:52.658Z,2.22
2023-02-06T15:04:26.322Z,2.03
2023-02-06T15:06:58.769Z,1.80
2023-02-06T15:09:32.521Z,2.58
2023-02-06T15:12:15.588Z,2.25
2023-02-06T15:14:54.916Z,2.25
2023-02-06T15:17:23.702Z,1.95
2023-02-06T15:19:50.610Z,1.95
2023-02-06T15:22:30.957Z,3.00
2023-02-06T15:25:27.420Z,2.05
2023-02-06T15:28:04.295Z,2.22
2023-02-06T15:30:32.553Z,1.63
2023-02-06T15:32:59.728Z,1.65
2023-02-06T15:35:32.314Z,2.30
2023-02-06T15:38:11.817Z,2.03
2023-02-06T15:40:42.293Z,2.67
2023-02-06T15:43:13.761Z,2.55
2023-02-06T15:45:41.088Z,4.13
2023-02-06T15:48:16.271Z,3.08
2023-02-06T15:51:20.477Z,4.00
2023-02-06T15:53:48.713Z,2.85
2023-02-06T15:56:27.860Z,2.45
2023-02-06T15:59:00.555Z,3.00
2023-02-06T16:01:31.039Z,3.20
2023-02-06T16:04:03.164Z,2.55
2023-02-06T16:06:29.968Z,3.92
2023-02-06T16:08:59.402Z,2.75
2023-02-06T16:14:36.952Z,2.53
2023-02-06T16:17:32.755Z,2.55
2023-02-06T16:20:02.673Z,2.70
2023-02-06T16:22:35.148Z,2.78
2023-02-06T16:25:20.881Z,3.40
2023-02-06T16:27:48.709Z,3.92
2023-02-06T16:30:31.526Z,3.33
2023-02-06T16:33:00.302Z,2.13
2023-02-06T16:35:27.203Z,3.63
2023-02-06T16:37:54.616Z,3.20
2023-02-06T16:40:21.468Z,3.50
2023-02-06T16:42:48.233Z,3.00
2023-02-06T16:45:24.364Z,2.85
2023-02-06T16:47:51.110Z,2.92
2023-02-06T16:50:18.152Z,3.47
2023-02-06T16:52:51.383Z,4.43
2023-02-06T16:55:23.701Z,6.10
2023-02-06T16:57:53.169Z,4.10
2023-02-06T17:02:49.745Z,2.67
2023-02-06T17:05:16.744Z,3.20
2023-02-06T17:07:43.747Z,2.70
2023-02-06T17:10:12.975Z,2.67
2023-02-06T17:12:39.989Z,3.70
2023-02-06T17:15:07.299Z,3.10
2023-02-06T17:17:34.114Z,2.65
2023-02-06T17:20:00.837Z,2.88
2023-02-06T17:22:27.588Z,2.40
2023-02-06T17:24:54.336Z,2.47
2023-02-06T17:27:22.245Z,2.67
2023-02-06T17:29:50.455Z,2.05
2023-02-06T17:32:22.042Z,3.50
2023-02-06T17:34:50.639Z,4.10
2023-02-06T17:37:20.876Z,3.42
2023-02-06T17:39:49.521Z,3.65
2023-02-06T17:42:16.976Z,3.38
2023-02-06T17:44:44.587Z,2.08
2023-02-06T17:47:11.644Z,2.85
2023-02-06T17:49:38.789Z,4.30
2023-02-06T17:52:05.622Z,3.10
2023-02-06T17:54:32.381Z,2.90
2023-02-06T17:56:59.322Z,2.70
2023-02-06T17:59:26.103Z,2.17
2023-02-06T18:01:52.836Z,2.95
2023-02-06T18:04:21.335Z,2.47
2023-02-06T18:06:48.300Z,2.75
2023-02-06T18:09:15.221Z,2.47
2023-02-06T18:11:42.279Z,3.10
2023-02-06T18:14:09.077Z,3.10
2023-02-06T18:16:36.342Z,2.47
2023-02-06T18:19:03.565Z,2.95
2023-02-06T18:21:31.565Z,2.72
2023-02-06T18:23:58.703Z,2.65
2023-02-06T18:26:26.005Z,2.08
2023-02-06T18:28:53.051Z,2.35
2023-02-06T18:31:28.625Z,3.08
2023-02-06T18:33:56.298Z,1.77
2023-02-06T18:36:23.540Z,3.42
2023-02-06T18:38:50.362Z,2.15
2023-02-06T18:41:35.555Z,2.13
2023-02-06T18:44:04.446Z,1.85
2023-02-06T18:46:31.287Z,3.25
2023-02-06T18:48:58.412Z,2.53
2023-02-06T18:51:25.714Z,2.03
2023-02-06T18:53:52.591Z,2.08
2023-02-06T18:56:19.519Z,2.40
2023-02-06T18:58:46.607Z,1.95
2023-02-06T19:01:22.377Z,2.42
2023-02-06T19:03:49.885Z,6.10
2023-02-06T19:06:18.173Z,2.53
2023-02-06T19:08:46.676Z,2.75
2023-02-06T19:11:13.682Z,2.60
2023-02-06T19:13:40.870Z,2.15
2023-02-06T19:16:12.168Z,2.97
2023-02-06T19:18:42.095Z,2.15
2023-02-06T19:21:12.211Z,2.53
2023-02-06T19:23:39.858Z,2.38
2023-02-06T19:26:07.964Z,1.77
2023-02-06T19:28:36.725Z,2.25
2023-02-06T19:31:04.009Z,2.58
2023-02-06T19:33:33.128Z,2.95
2023-02-06T19:36:00.169Z,3.25
2023-02-06T19:38:26.951Z,2.83
2023-02-06T19:40:53.837Z,2.03
2023-02-06T19:43:20.673Z,2.78
2023-02-06T19:45:47.555Z,3.92
2023-02-06T19:48:14.417Z,3.88
2023-02-06T19:50:42.080Z,6.03
2023-02-06T19:53:09.507Z,4.88
2023-02-06T19:55:36.808Z,4.90
2023-02-06T19:58:03.734Z,5.47
2023-02-06T20:00:30.477Z,7.68
2023-02-06T20:02:57.216Z,7.03
2023-02-06T20:05:26.350Z,6.38
2023-02-06T20:07:54.060Z,5.82
2023-02-06T20:10:22.063Z,4.53
2023-02-06T20:12:48.985Z,6.00
2023-02-06T20:15:15.807Z,4.32
2023-02-06T20:17:43.096Z,5.07
2023-02-06T20:20:10.585Z,5.60
2023-02-06T20:22:38.507Z,5.82
2023-02-06T20:25:05.817Z,7.20
2023-02-06T20:27:32.596Z,7.05
2023-02-06T20:29:59.380Z,6.72
2023-02-06T20:32:26.341Z,5.53
2023-02-06T20:34:53.132Z,7.00
2023-02-06T20:37:21.489Z,7.10
2023-02-06T20:39:49.242Z,6.25
2023-02-06T20:42:16.002Z,7.32
2023-02-06T20:44:42.879Z,7.07
2023-02-06T20:47:09.598Z,6.50
2023-02-06T20:49:36.398Z,5.65
2023-02-06T20:52:03.442Z,6.25
2023-02-06T20:54:30.949Z,7.03
2023-02-06T20:56:59.286Z,6.75
2023-02-06T20:59:26.846Z,6.22
2023-02-06T21:01:53.667Z,6.55
2023-02-06T21:04:20.800Z,6.93
2023-02-06T21:06:50.398Z,5.95
2023-02-06T21:09:18.370Z,5.80
2023-02-06T21:11:48.064Z,8.20
2023-02-06T21:14:15.275Z,6.78
2023-02-06T21:16:43.772Z,4.55
2023-02-06T21:19:12.619Z,5.88
2023-02-06T21:21:39.736Z,5.60
2023-02-06T21:24:07.434Z,6.35
2023-02-06T21:26:34.257Z,5.85
2023-02-06T21:29:02.598Z,6.15
2023-02-06T21:31:36.940Z,7.70
2023-02-06T21:34:11.800Z,5.82
2023-02-06T21:36:39.362Z,5.22
2023-02-06T21:39:06.989Z,5.28
2023-02-06T21:41:33.837Z,5.45
2023-02-06T21:44:00.632Z,4.88
2023-02-06T21:46:30.412Z,4.78
2023-02-06T21:48:57.123Z,4.75
2023-02-06T21:51:23.858Z,6.47
2023-02-06T21:53:50.818Z,5.18
2023-02-06T21:56:20.667Z,5.00
2023-02-06T21:58:48.483Z,4.25
2023-02-06T22:01:29.499Z,4.63
2023-02-06T22:03:57.311Z,3.92
2023-02-06T22:06:24.292Z,4.18
2023-02-06T22:08:52.443Z,4.22
2023-02-06T22:11:26.259Z,3.50
2023-02-06T22:13:57.125Z,4.03
2023-02-06T22:16:24.254Z,3.65
2023-02-06T22:18:51.272Z,4.32
2023-02-06T22:21:20.506Z,3.42
2023-02-06T22:23:48.515Z,3.63
2023-02-06T22:26:17.752Z,6.60
2023-02-06T22:28:45.254Z,4.30
2023-02-06T22:31:20.637Z,3.35
2023-02-06T22:33:47.942Z,3.42
2023-02-06T22:36:20.113Z,2.92
2023-02-06T22:38:47.906Z,3.08
2023-02-06T22:41:16.307Z,3.42
2023-02-06T22:43:44.272Z,3.85
2023-02-06T22:46:22.499Z,4.28
2023-02-06T22:48:49.459Z,4.07
2023-02-06T22:51:16.234Z,5.00
2023-02-06T22:53:43.556Z,4.72
2023-02-06T22:56:36.788Z,3.97
2023-02-06T22:59:10.432Z,3.20
2023-02-06T23:01:54.965Z,3.67
2023-02-06T23:04:24.520Z,3.65
2023-02-06T23:06:51.555Z,3.85
2023-02-06T23:09:26.800Z,2.45
2023-02-06T23:11:54.348Z,5.30
2023-02-06T23:14:21.289Z,4.85
2023-02-06T23:16:48.570Z,3.95
2023-02-06T23:19:16.982Z,4.03
2023-02-06T23:21:46.155Z,3.22
2023-02-06T23:24:13.423Z,3.10
2023-02-06T23:26:45.393Z,3.00
2023-02-06T23:29:17.304Z,3.08
2023-02-06T23:31:45.637Z,2.92
2023-02-06T23:34:13.083Z,3.60
2023-02-06T23:36:40.089Z,2.78
2023-02-06T23:39:07.064Z,3.17
2023-02-06T23:41:34.433Z,3.47
2023-02-06T23:44:06.172Z,3.58
2023-02-06T23:46:34.611Z,3.33
2023-02-06T23:49:01.408Z,3.78
